Port Crane, New York
Current Conditions -  °F | °C
As of 5:53 AM on Monday 20 Oct 2014 (Local Time) from KBGM Reporting Station
Broken Clouds Broken Clouds  
Wind Chill: 33°   Ceiling: 10000
Heat Index: 33°   Visibility: 10mi
Dew Point: 28°   Wind: 3mph
Humidity: 82%   Direction: 180°S
Pressure: 30"   Gusts: NA
Location:  42.16°N, 75.83°W
Report Text: KBGM 200953Z AUTO 18003KT 10SM BKN100 BKN120 01/M02 A3000 RMK AO2 SLP171 T00061022
Loading
Personal Weather Stations






























Interactive Weather Map
Tropical Storm Tracking
New forecast layout! Learn more

10-Day Weather Forecast

Advertisements
Track Severe Weather on mobile